Latest Weather Observations for Kingaroy

IDQ60801

Issued at 12:02 pm EST Friday 27 May 2016 (issued every 30 minutes, with the page automatically refreshed every 10 minutes)

About weather observations | Map of weather stations | Latest weather observations for QLD | Other Formats
Station Details ID: 040922 Name: KINGAROY AIRPORT Lat: -26.57 Lon: 151.84 Height: 433.67 m
Data from the previous 72 hours. | See also: Recent months at Kingaroy
Date/Time
EST
Temp
°C
App
Temp
°C
Dew
Point
Rel
Hum
%
Delta-T
°C
Wind Press
QNH
hPa
Press
MSL
hPa
Rain
since 9 am
mm
Dir
 
Spd
km/h
Gust
km/h
Spd
kts
Gust
kts
27/12:00pm 20.4 16.8 13.1 63 4.2 WSW 24 35 13 19 1010.8 1010.1 0.0
27/11:30am 20.8 17.3 13.5 63 4.3 WSW 24 35 13 19 1010.8 1010.1 0.0
27/11:00am 20.2 16.7 13.4 65 4.0 W 24 37 13 20 1011.1 1010.4 0.0
27/10:30am 20.9 17.8 14.5 67 3.8 W 24 37 13 20 1011.5 1010.7 0.0
27/10:00am 19.7 16.0 14.9 74 2.9 W 28 39 15 21 1012.0 1011.2 0.0
27/09:30am 19.4 16.9 15.1 76 2.6 W 22 30 12 16 1012.2 1011.4 0.0
27/09:00am 18.6 16.5 14.7 78 2.3 W 19 26 10 14 1012.0 1011.2 0.8
27/08:30am 17.7 16.9 15.1 85 1.5 W 13 19 7 10 1011.6 1010.8 0.8
27/08:00am 16.7 16.5 15.6 93 0.7 WNW 11 15 6 8 1011.5 1010.7 0.8
27/07:30am 16.3 16.3 15.2 93 0.7 WNW 9 15 5 8 1011.5 1010.7 0.8
27/07:00am 16.0 15.5 14.9 93 0.6 WNW 11 15 6 8 1011.5 1010.7 0.4
27/06:30am 15.1 14.8 13.3 89 1.0 WNW 7 9 4 5 1011.0 1010.3 0.4
27/06:00am 15.2 14.9 13.4 89 1.0 N 7 9 4 5 1010.1 1009.3 0.4
27/05:30am 14.4 14.1 12.8 90 0.9 N 6 9 3 5 1009.7 1008.9 0.4
27/05:00am 14.3 15.1 12.5 89 1.0 CALM 0 0 0 0 1009.9 1009.1 0.4
27/04:30am 15.7 15.2 13.7 88 1.1 N 9 11 5 6 1009.5 1008.7 0.4
27/04:00am 15.1 16.1 13.1 88 1.1 CALM 0 4 0 2 1009.9 1009.1 0.4
27/03:30am 15.3 16.0 13.3 88 1.1 NNW 2 9 1 5 1009.9 1009.1 0.4
27/03:00am 15.6 15.3 13.4 87 1.3 N 7 9 4 5 1010.0 1009.2 0.4
27/02:30am 15.9 15.6 13.2 84 1.5 N 7 11 4 6 1010.0 1009.2 0.4
27/02:00am 16.7 16.1 13.4 81 1.9 W 9 13 5 7 1010.1 1009.3 0.4
27/01:30am 17.3 15.5 12.2 72 2.9 NNW 13 17 7 9 1010.0 1009.2 0.0
27/01:00am 17.1 15.8 12.4 74 2.7 N 11 13 6 7 1009.7 1008.9 0.0
27/12:30am 17.8 17.2 12.3 70 3.1 N 7 11 4 6 1010.3 1009.5 0.0
27/12:00am 18.0 16.9 11.8 67 3.5 NNW 9 13 5 7 1010.6 1009.9 0.0
 
Date/Time
EST
Temp
°C
App
Temp
°C
Dew
Point
Rel
Hum
%
Delta-T
°C
Wind Press
QNH
hPa
Press
MSL
hPa
Rain
since 9 am
mm
Dir
 
Spd
km/h
Gust
km/h
Spd
kts
Gust
kts
26/11:30pm 19.4 16.4 11.9 62 4.2 WSW 19 32 10 17 1011.6 1010.8 0.0
26/11:00pm 19.6 17.1 11.1 58 4.8 NNW 15 19 8 10 1010.3 1009.5 0.0
26/10:30pm 19.8 17.7 11.0 57 4.9 N 13 19 7 10 1010.5 1009.7 0.0
26/10:00pm 19.8 17.7 11.0 57 4.9 N 13 17 7 9 1010.5 1009.7 0.0
26/09:30pm 19.7 17.2 10.9 57 4.9 NNW 15 17 8 9 1010.7 1010.0 0.0
26/09:00pm 18.9 16.7 10.7 59 4.5 NNW 13 15 7 8 1011.0 1010.3 0.0
26/08:30pm 18.7 16.7 10.3 58 4.6 NW 11 13 6 7 1011.0 1010.3 0.0
26/08:00pm 18.5 16.0 9.8 57 4.7 NNW 13 15 7 8 1011.1 1010.4 0.0
26/07:30pm 19.8 17.4 10.0 53 5.4 N 13 13 7 7 1011.3 1010.6 0.0
26/07:00pm 20.3 18.3 10.1 52 5.6 NNW 11 13 6 7 1011.5 1010.7 0.0
26/06:30pm 19.9 18.2 10.0 53 5.4 NNW 9 15 5 8 1011.5 1010.7 0.0
26/06:00pm 20.9 18.8 9.8 49 6.1 N 11 17 6 9 1011.2 1010.5 0.0
26/05:30pm 23.4 21.0 10.1 43 7.4 N 13 19 7 10 1010.7 1010.0 0.0
26/05:00pm 24.7 20.5 9.8 39 8.4 N 22 30 12 16 1010.5 1009.7 0.0
26/04:30pm 25.8 21.2 9.6 36 9.1 NNW 24 32 13 17 1010.4 1009.6 0.0
26/04:00pm 26.4 21.8 9.7 35 9.4 N 24 33 13 18 1010.5 1009.7 0.0
26/03:30pm 27.4 22.7 9.3 32 10.2 NW 24 30 13 16 1010.4 1009.6 0.0
26/03:00pm 28.1 22.7 9.4 31 10.6 NW 28 39 15 21 1010.7 1010.0 0.0
26/02:30pm 27.8 21.8 8.6 30 10.7 NW 30 41 16 22 1011.0 1010.3 0.0
26/02:00pm 28.1 22.8 8.4 29 11.0 NW 26 35 14 19 1011.3 1010.6 0.0
26/01:30pm 27.7 22.3 8.1 29 10.8 NNW 26 39 14 21 1011.7 1010.9 0.0
26/01:00pm 27.1 21.3 8.0 30 10.5 NW 28 43 15 23 1012.4 1011.6 0.0
26/12:30pm 26.5 21.7 8.9 33 9.8 NNW 24 35 13 19 1013.2 1012.5 0.0
26/12:00pm 25.5 19.8 8.5 34 9.3 NNW 28 41 15 22 1014.1 1013.3 0.0
26/11:30am 25.5 20.3 8.9 35 9.2 NW 26 37 14 20 1014.8 1014.1 0.0
26/11:00am 24.0 18.3 8.4 37 8.5 NNW 28 37 15 20 1015.4 1014.7 0.0
26/10:30am 22.7 18.1 9.8 44 7.1 NW 24 32 13 17 1016.4 1015.6 0.0
26/10:00am 21.1 18.7 10.0 49 6.1 NW 13 19 7 10 1016.9 1016.2 0.0
26/09:30am 18.7 16.0 8.9 53 5.2 NW 13 17 7 9 1017.3 1016.6 0.0
26/09:00am 16.6 14.4 7.8 56 4.5 NW 9 13 5 7 1017.4 1016.7 0.0
26/08:30am 12.2 11.2 5.4 63 3.2 CALM 0 0 0 0 1017.6 1016.9 0.0
26/08:00am 7.8 6.4 3.5 74 1.9 CALM 0 0 0 0 1017.6 1016.9 0.0
26/07:30am 4.3 2.7 2.5 88 0.7 CALM 0 0 0 0 1017.4 1016.7 0.0
26/07:00am 2.9 1.0 0.8 86 0.8 CALM 0 0 0 0 1017.4 1016.7 0.0
26/06:30am 2.3 -1.0 0.2 86 0.8 S 7 9 4 5 1017.3 1016.6 0.0
26/06:00am 2.4 0.4 0.1 85 0.9 CALM 0 0 0 0 1017.1 1016.4 0.0
26/05:30am 2.3 0.3 0.0 85 0.9 CALM 0 0 0 0 1017.1 1016.4 0.0
26/05:00am 2.3 0.3 -0.1 84 0.9 CALM 0 0 0 0 1017.0 1016.3 0.0
26/04:30am 2.3 0.3 -0.4 82 1.0 CALM 0 9 0 5 1017.1 1016.4 0.0
26/04:00am 2.7 0.7 -0.2 81 1.1 CALM 0 0 0 0 1017.1 1016.4 0.0
26/03:30am 2.4 0.2 -1.2 77 1.3 CALM 0 0 0 0 1017.3 1016.6 0.0
26/03:00am 3.5 1.5 -0.1 77 1.4 CALM 0 0 0 0 1017.4 1016.7 0.0
26/02:30am 3.2 1.1 -0.8 75 1.5 CALM 0 0 0 0 1017.7 1017.0 0.0
26/02:00am 3.5 1.4 -0.9 73 1.7 CALM 0 0 0 0 1017.9 1017.2 0.0
26/01:30am 3.7 1.6 -0.9 72 1.7 CALM 0 0 0 0 1018.0 1017.3 0.0
26/01:00am 4.2 2.0 -1.2 68 2.0 CALM 0 0 0 0 1017.9 1017.2 0.0
26/12:30am 4.0 0.7 -1.4 68 2.0 S 6 11 3 6 1018.0 1017.3 0.0
26/12:00am 4.9 1.4 -1.1 65 2.3 S 7 7 4 4 1018.0 1017.3 0.0
 
Date/Time
EST
Temp
°C
App
Temp
°C
Dew
Point
Rel
Hum
%
Delta-T
°C
Wind Press
QNH
hPa
Press
MSL
hPa
Rain
since 9 am
mm
Dir
 
Spd
km/h
Gust
km/h
Spd
kts
Gust
kts
25/11:30pm 4.6 1.2 -1.8 63 2.4 SSW 6 9 3 5 1018.2 1017.5 0.0
25/11:00pm 5.4 1.9 -1.1 63 2.5 SSW 7 9 4 5 1018.4 1017.7 0.0
25/10:30pm 6.3 4.1 -1.8 56 3.1 CALM 0 0 0 0 1018.6 1018.0 0.0
25/10:00pm 6.8 3.3 -1.1 57 3.1 S 7 11 4 6 1018.6 1018.0 0.0
25/09:30pm 7.8 4.4 -1.7 51 3.7 S 6 9 3 5 1018.6 1018.0 0.0
25/09:00pm 8.7 5.2 -2.9 44 4.4 ESE 6 7 3 4 1018.5 1017.8 0.0
25/08:30pm 9.3 6.9 -2.9 42 4.7 CALM 0 0 0 0 1018.4 1017.7 0.0
25/08:00pm 10.2 7.8 -3.1 39 5.1 CALM 0 0 0 0 1018.2 1017.5 0.0
25/07:30pm 10.3 6.8 -3.0 39 5.1 ESE 6 11 3 6 1017.9 1017.2 0.0
25/07:00pm 9.6 6.0 -3.3 40 4.9 ENE 6 9 3 5 1017.7 1017.0 0.0
25/06:30pm 11.8 8.0 -3.9 33 6.0 E 7 11 4 6 1017.2 1016.5 0.0
25/06:00pm 13.9 10.9 -5.3 26 7.3 WSW 2 6 1 3 1016.8 1016.1 0.0
25/05:30pm 16.9 12.8 -6.2 20 8.9 E 7 9 4 5 1016.5 1015.7 0.0
25/05:00pm 21.8 18.5 -8.8 12 11.8 NNE 2 6 1 3 1016.1 1015.4 0.0
25/04:30pm 24.2 19.3 -12.1 8 13.5 N 9 11 5 6 1015.9 1015.2 0.0
25/04:00pm 25.6 20.9 -14.6 6 14.5 NNW 7 17 4 9 1015.7 1015.0 0.0
25/03:30pm 26.5 21.9 -13.9 6 14.9 NNE 7 13 4 7 1015.7 1015.0 0.0
25/03:00pm 26.9 23.1 -15.9 5 15.3 SSW 2 7 1 4 1015.7 1015.0 0.0
25/02:30pm 26.6 21.6 -13.9 6 15.0 WSW 9 13 5 7 1015.8 1015.1 0.0
25/02:00pm 25.8 21.3 -14.5 6 14.6 SSE 6 9 3 5 1016.1 1015.4 0.0
25/01:30pm 25.8 21.2 -16.6 5 14.8 WSW 6 9 3 5 1016.6 1015.8 0.0
25/01:00pm 26.1 21.3 -16.4 5 14.9 NNW 7 11 4 6 1017.0 1016.3 0.0
25/12:30pm 25.6 20.5 -14.6 6 14.5 ESE 9 19 5 10 1017.3 1016.6 0.0
25/12:00pm 24.9 19.5 -13.2 7 14.0 ESE 11 17 6 9 1017.9 1017.2 0.0
25/11:30am 23.6 18.9 -9.8 10 12.9 SSE 9 17 5 9 1018.4 1017.7 0.0
25/11:00am 23.5 18.9 -7.5 12 12.5 SE 9 15 5 8 1019.0 1018.3 0.0
25/10:30am 21.9 16.7 -5.9 15 11.4 S 13 17 7 9 1019.2 1018.5 0.0
25/10:00am 19.0 16.1 1.5 31 8.1 NNE 6 9 3 5 1019.5 1018.8 0.0
25/09:30am 15.2 12.5 2.4 42 5.8 NW 6 9 3 5 1019.6 1018.9 0.0
25/09:00am 11.3 8.0 2.6 55 3.8 NNW 9 11 5 6 1019.6 1018.9 0.0
25/08:30am 7.9 6.2 1.7 65 2.6 CALM 0 0 0 0 1019.4 1018.7 0.0
25/08:00am 5.1 3.3 1.4 77 1.5 CALM 0 0 0 0 1019.6 1018.9 0.0
25/07:30am 0.7 -1.3 -0.4 92 0.4 CALM 0 0 0 0 1019.3 1018.6 0.0
25/07:00am -1.4 -3.8 -3.0 89 0.5 CALM 0 0 0 0 1018.9 1018.2 0.0
25/06:30am -1.5 -4.0 -3.8 84 0.7 CALM 0 0 0 0 1018.6 1018.0 0.0
25/06:00am -0.7 -3.0 -2.6 87 0.6 CALM 0 0 0 0 1018.6 1018.0 0.0
25/05:30am -0.7 -3.1 -3.2 83 0.8 CALM 0 0 0 0 1018.6 1018.0 0.0
25/05:00am -0.3 -2.7 -3.0 82 0.9 CALM 0 0 0 0 1018.8 1018.1 0.0
25/04:30am 0.1 -2.3 -3.1 79 1.1 CALM 0 0 0 0 1018.6 1018.0 0.0
25/04:00am 0.6 -1.7 -2.4 80 1.1 CALM 0 7 0 4 1018.6 1018.0 0.0
25/03:30am 1.0 -2.7 -3.1 74 1.5 S 7 7 4 4 1018.8 1018.1 0.0
25/03:00am 1.1 -1.3 -3.4 72 1.6 CALM 0 0 0 0 1019.0 1018.3 0.0
25/02:30am 1.2 -2.5 -3.3 72 1.6 NNE 7 9 4 5 1019.0 1018.3 0.0
25/02:00am 1.8 -0.7 -3.7 67 2.0 CALM 0 0 0 0 1019.0 1018.3 0.0
25/01:30am 2.4 -0.1 -3.7 64 2.1 CALM 0 0 0 0 1019.3 1018.6 0.0
25/01:00am 3.5 -0.1 -3.7 59 2.5 SSE 6 7 3 4 1019.7 1019.0 0.0
25/12:30am 2.5 0.0 -3.6 64 2.1 CALM 0 6 0 3 1020.0 1019.3 0.0
25/12:00am 3.3 0.9 -3.5 61 2.4 CALM 0 6 0 3 1019.7 1019.0 0.0
 
Date/Time
EST
Temp
°C
App
Temp
°C
Dew
Point
Rel
Hum
%
Delta-T
°C
Wind Press
QNH
hPa
Press
MSL
hPa
Rain
since 9 am
mm
Dir
 
Spd
km/h
Gust
km/h
Spd
kts
Gust
kts
24/11:30pm 4.1 1.6 -3.9 56 2.8 CALM 0 0 0 0 1019.9 1019.2 0.0
24/11:00pm 4.7 1.4 -4.0 53 3.1 SW 4 7 2 4 1019.8 1019.1 0.0
24/10:30pm 5.1 2.7 -3.4 54 3.1 CALM 0 0 0 0 1019.9 1019.2 0.0
24/10:00pm 6.2 3.7 -4.3 47 3.7 CALM 0 0 0 0 1020.0 1019.3 0.0
24/09:30pm 5.8 1.3 -3.5 51 3.4 S 11 13 6 7 1020.1 1019.4 0.0
24/09:00pm 6.3 3.9 -3.3 50 3.5 CALM 0 0 0 0 1020.2 1019.5 0.0
24/08:30pm 7.8 5.3 -4.0 43 4.3 CALM 0 0 0 0 1020.0 1019.3 0.0
24/08:00pm 9.5 7.0 -4.4 37 5.1 CALM 0 0 0 0 1019.6 1018.9 0.0
24/07:30pm 8.3 4.6 -3.2 44 4.3 SSE 7 9 4 5 1019.4 1018.7 0.0
24/07:00pm 9.9 6.0 -4.4 36 5.3 E 7 9 4 5 1019.1 1018.4 0.0
24/06:30pm 10.9 8.3 -4.7 33 5.8 CALM 0 0 0 0 1019.0 1018.3 0.0
24/06:00pm 15.0 10.9 -6.5 22 8.1 SSE 7 9 4 5 1018.4 1017.7 0.0
24/05:30pm 18.7 15.1 -7.6 16 10.1 WSW 4 6 2 3 1018.1 1017.4 0.0
24/05:00pm 21.3 16.7 -8.2 13 11.5 WSW 9 11 5 6 1017.8 1017.1 0.0
24/04:30pm 23.0 17.6 -7.9 12 12.3 WSW 13 17 7 9 1017.5 1016.8 0.0
24/04:00pm 23.8 17.6 -8.4 11 12.8 WSW 17 22 9 12 1017.2 1016.5 0.0
24/03:30pm 25.0 19.2 -8.7 10 13.5 WSW 15 22 8 12 1017.0 1016.3 0.0
24/03:00pm 25.3 18.7 -9.8 9 13.8 WSW 19 28 10 15 1016.8 1016.1 0.0
24/02:30pm 25.6 19.0 -9.6 9 13.9 WSW 19 28 10 15 1016.7 1016.0 0.0
24/02:00pm 25.9 19.0 -10.8 8 14.2 WSW 20 28 11 15 1016.6 1015.8 0.0
24/01:30pm 26.0 19.9 -12.4 7 14.5 SW 15 24 8 13 1016.7 1016.0 0.0
24/01:00pm 26.0 19.3 -10.8 8 14.3 SSW 19 26 10 14 1017.0 1016.3 0.0
24/12:30pm 25.8 19.8 -6.9 11 13.6 SSW 17 26 9 14 1017.4 1016.7 0.0

Other Formats:

Comma delimited format used in spreadsheet applications
http://www.bom.gov.au/fwo/IDQ60801/IDQ60801.94549.axf

JavaScript Object Notation format (JSON) in row-major order
http://www.bom.gov.au/fwo/IDQ60801/IDQ60801.94549.json